createdAt,value
2022-08-19T00:00:34.851Z,80.15
2022-08-19T00:01:39.945Z,80.2
2022-08-19T00:02:35.474Z,80.43
2022-08-19T00:03:34.839Z,80.63
2022-08-19T00:04:34.936Z,80.24
2022-08-19T00:05:35.088Z,80.15
2022-08-19T00:06:35.099Z,80.34
2022-08-19T00:07:35.073Z,80.34
2022-08-19T00:08:34.814Z,80.53
2022-08-19T00:09:35.063Z,80.43
2022-08-19T00:10:35.064Z,80.05
2022-08-19T00:11:34.796Z,80.15
2022-08-19T00:12:35.051Z,79.86
2022-08-19T00:13:34.788Z,79.82
2022-08-19T00:14:35.488Z,79.86
2022-08-19T00:15:34.796Z,79.82
2022-08-19T00:16:35.024Z,79.63
2022-08-19T00:17:34.769Z,79.82
2022-08-19T00:18:35.015Z,79.91
2022-08-19T00:19:34.757Z,79.72
2022-08-19T00:20:35.006Z,79.82
2022-08-19T00:21:35.007Z,80.01
2022-08-19T00:22:34.741Z,79.76
2022-08-19T00:23:34.992Z,79.72
2022-08-19T00:24:34.993Z,79.63
2022-08-19T00:25:34.983Z,79.44
2022-08-19T00:26:34.977Z,80.11
2022-08-19T00:27:34.975Z,79.53
2022-08-19T00:28:38.446Z,79.44
2022-08-19T00:29:34.704Z,79.63
2022-08-19T00:30:34.956Z,79.05
2022-08-19T00:31:34.952Z,79.53
2022-08-19T00:32:36.430Z,79.34
2022-08-19T00:33:35.609Z,79.34
2022-08-19T00:34:34.942Z,79.34
2022-08-19T00:35:34.677Z,79.14
2022-08-19T00:36:34.672Z,79.24
2022-08-19T00:37:34.922Z,79.05
2022-08-19T00:38:40.440Z,79.14
2022-08-19T00:39:34.782Z,78.96
2022-08-19T00:40:34.916Z,78.57
2022-08-19T00:41:34.655Z,78.47
2022-08-19T00:42:34.903Z,78.38
2022-08-19T00:43:34.640Z,78
2022-08-19T00:44:34.884Z,78.19
2022-08-19T00:45:38.235Z,77.61
2022-08-19T00:46:34.878Z,77.71
2022-08-19T00:47:34.868Z,77.33
2022-08-19T00:48:34.879Z,76.75
2022-08-19T00:49:34.856Z,77.04
2022-08-19T00:50:34.853Z,76.94
2022-08-19T00:51:34.845Z,76.84
2022-08-19T00:52:34.586Z,76.84
2022-08-19T00:53:34.580Z,77.13
2022-08-19T00:54:34.640Z,77.33
2022-08-19T00:55:34.565Z,77.33
2022-08-19T00:56:34.562Z,77.04
2022-08-19T00:57:34.565Z,77.33
2022-08-19T00:58:34.813Z,76.56
2022-08-19T01:00:03.639Z,76.65
2022-08-19T01:00:34.801Z,76.75
2022-08-19T01:01:34.652Z,76.84
2022-08-19T01:02:34.791Z,76.37
2022-08-19T01:03:59.342Z,76.94
2022-08-19T01:04:34.525Z,76.75
2022-08-19T01:05:34.515Z,76.65
2022-08-19T01:06:34.773Z,76.65
2022-08-19T01:07:40.533Z,76.46
2022-08-19T01:08:34.501Z,76.56
2022-08-19T01:09:34.754Z,76.37
2022-08-19T01:10:38.802Z,75.89
2022-08-19T01:11:34.737Z,76.65
2022-08-19T01:12:34.734Z,76.56
2022-08-19T01:13:51.753Z,76.56
2022-08-19T01:14:34.471Z,76.56
2022-08-19T01:15:34.718Z,76.56
2022-08-19T01:16:34.458Z,76.17
2022-08-19T01:17:34.712Z,76.37
2022-08-19T01:18:34.701Z,76.27
2022-08-19T01:19:45.938Z,76.17
2022-08-19T01:20:34.691Z,75.89
2022-08-19T01:21:34.692Z,75.98
2022-08-19T01:22:36.190Z,75.89
2022-08-19T01:23:34.678Z,75.79
2022-08-19T01:24:34.416Z,75.31
2022-08-19T01:25:35.648Z,75.21
2022-08-19T01:26:34.720Z,75.6
2022-08-19T01:27:45.458Z,75.12
2022-08-19T01:28:42.306Z,75.12
2022-08-19T01:29:34.647Z,75.21
2022-08-19T01:30:34.646Z,75.02
2022-08-19T01:31:35.113Z,75.12
2022-08-19T01:32:36.549Z,74.93
2022-08-19T01:33:34.627Z,75.12
2022-08-19T01:34:34.619Z,75.02
2022-08-19T01:35:34.625Z,75.02
2022-08-19T01:36:34.355Z,75.02
2022-08-19T01:37:34.608Z,74.73
2022-08-19T01:38:34.599Z,74.83
2022-08-19T01:39:34.676Z,74.16
2022-08-19T01:40:34.337Z,74.44
2022-08-19T01:41:34.337Z,74.35
2022-08-19T01:42:34.320Z,74.06
2022-08-19T01:43:34.318Z,74.26
2022-08-19T01:44:34.313Z,74.26
2022-08-19T01:45:34.309Z,74.26
2022-08-19T01:46:34.565Z,74.26
2022-08-19T01:47:34.556Z,74.26
2022-08-19T01:48:34.292Z,74.26
2022-08-19T01:49:34.288Z,74.16
2022-08-19T01:50:34.280Z,74.26
2022-08-19T01:51:42.591Z,74.44
2022-08-19T01:52:34.289Z,74.16
2022-08-19T01:53:36.280Z,74.26
2022-08-19T01:54:34.516Z,74.06
2022-08-19T01:55:34.515Z,74.26
2022-08-19T01:56:34.507Z,74.35
2022-08-19T01:57:34.503Z,73.97
2022-08-19T01:58:34.240Z,74.26
2022-08-19T01:59:34.491Z,73.87
2022-08-19T02:00:34.229Z,73.58
2022-08-19T02:01:34.556Z,73.68
2022-08-19T02:02:34.219Z,73.49
2022-08-19T02:03:34.215Z,73.87
2022-08-19T02:04:34.208Z,73.87
2022-08-19T02:05:34.206Z,73.68
2022-08-19T02:06:34.456Z,73.58
2022-08-19T02:07:34.199Z,73.97
2022-08-19T02:08:34.448Z,73.97
2022-08-19T02:09:34.185Z,73.77
2022-08-19T02:10:34.436Z,73.49
2022-08-19T02:11:34.473Z,73.97
2022-08-19T02:12:34.429Z,73.87
2022-08-19T02:13:34.431Z,74.06
2022-08-19T02:14:34.417Z,74.06
2022-08-19T02:15:34.152Z,73.97
2022-08-19T02:16:34.406Z,73.97
2022-08-19T02:17:34.142Z,73.77
2022-08-19T02:18:34.398Z,73.58
2022-08-19T02:19:34.133Z,74.44
2022-08-19T02:20:34.387Z,73.39
2022-08-19T02:21:34.376Z,74.26
2022-08-19T02:22:34.118Z,73.77
2022-08-19T02:23:34.123Z,73.39
2022-08-19T02:24:34.367Z,73.49
2022-08-19T02:25:34.102Z,73.68
2022-08-19T02:26:34.418Z,73.77
2022-08-19T02:27:34.094Z,73.58
2022-08-19T02:28:34.343Z,73.58
2022-08-19T02:29:34.334Z,74.16
2022-08-19T02:30:34.075Z,73.49
2022-08-19T02:31:34.073Z,73.77
2022-08-19T02:32:34.326Z,73.58
2022-08-19T02:33:34.058Z,73
2022-08-19T02:34:34.054Z,73.49
2022-08-19T02:35:34.303Z,73.58
2022-08-19T02:36:34.304Z,73.2
2022-08-19T02:37:37.515Z,73.58
2022-08-19T02:38:34.034Z,73.49
2022-08-19T02:39:34.366Z,73
2022-08-19T02:40:34.025Z,73.49
2022-08-19T02:41:34.273Z,73.49
2022-08-19T02:42:34.267Z,73.1
2022-08-19T02:43:36.783Z,73.1
2022-08-19T02:44:35.764Z,73.2
2022-08-19T02:45:35.503Z,73
2022-08-19T02:46:35.499Z,73.49
2022-08-19T02:47:35.746Z,72.63
2022-08-19T02:48:35.742Z,73
2022-08-19T02:49:37.026Z,72.72
2022-08-19T02:50:35.479Z,72.81
2022-08-19T02:51:35.470Z,72.81
2022-08-19T02:52:35.467Z,73
2022-08-19T02:53:35.719Z,73
2022-08-19T02:54:35.456Z,72.53
2022-08-19T02:55:48.762Z,71.95
2022-08-19T02:56:35.447Z,72.28
2022-08-19T02:57:35.442Z,72.33
2022-08-19T02:58:35.696Z,72.05
2022-08-19T02:59:35.687Z,72.63
2022-08-19T03:00:36.935Z,71.95
2022-08-19T03:01:35.801Z,72.66
2022-08-19T03:02:35.415Z,72.63
2022-08-19T03:03:35.679Z,72.24
2022-08-19T03:04:35.663Z,72.14
2022-08-19T03:05:58.625Z,71.95
2022-08-19T03:06:35.395Z,72.43
2022-08-19T03:07:35.393Z,72.43
2022-08-19T03:08:35.640Z,72.33
2022-08-19T03:09:35.382Z,72.05
2022-08-19T03:10:35.375Z,72.63
2022-08-19T03:11:35.631Z,72.24
2022-08-19T03:12:35.620Z,72.05
2022-08-19T03:13:35.619Z,72.47
2022-08-19T03:14:35.610Z,72.33
2022-08-19T03:15:35.351Z,72.37
2022-08-19T03:16:36.227Z,72.18
2022-08-19T03:17:35.598Z,72.53
2022-08-19T03:18:37.435Z,72.28
2022-08-19T03:19:35.587Z,72.18
2022-08-19T03:20:35.578Z,72.37
2022-08-19T03:21:35.581Z,72.24
2022-08-19T03:22:35.625Z,72.37
2022-08-19T03:23:35.308Z,71.86
2022-08-19T03:24:35.559Z,71.95
2022-08-19T03:25:35.300Z,72.08
2022-08-19T03:26:35.293Z,71.98
2022-08-19T03:27:36.922Z,71.86
2022-08-19T03:28:35.540Z,72.08
2022-08-19T03:29:45.409Z,71.98
2022-08-19T03:30:35.905Z,72.28
2022-08-19T03:31:51.209Z,71.98
2022-08-19T03:32:35.849Z,72.47
2022-08-19T03:50:02.104Z,71.57
2022-08-19T03:51:01.874Z,71.51
2022-08-19T03:52:02.118Z,71.57
2022-08-19T03:53:01.853Z,71.61
2022-08-19T03:54:02.102Z,72.05
2022-08-19T03:55:01.846Z,72.08
2022-08-19T03:56:02.090Z,71.95
2022-08-19T03:57:01.825Z,72.05
2022-08-19T03:58:01.818Z,71.95
2022-08-19T03:59:01.811Z,71.86
2022-08-19T04:00:15.086Z,71.95
2022-08-19T04:01:01.905Z,72.05
2022-08-19T04:02:01.794Z,71.57
2022-08-19T04:03:03.551Z,71.19
2022-08-19T04:04:01.951Z,71.28
2022-08-19T04:05:01.771Z,71.47
2022-08-19T04:06:01.769Z,71.47
2022-08-19T04:07:01.765Z,71.37
2022-08-19T04:08:02.020Z,71.28
2022-08-19T04:09:01.750Z,71.37
2022-08-19T04:10:02.003Z,71.37
2022-08-19T04:11:01.995Z,71.28
2022-08-19T04:12:01.743Z,71.28
2022-08-19T04:13:01.726Z,71.57
2022-08-19T04:14:02.287Z,71.57
2022-08-19T04:15:01.973Z,71.37
2022-08-19T04:16:01.969Z,71.57
2022-08-19T04:17:01.709Z,71.37
2022-08-19T04:18:01.710Z,71.76
2022-08-19T04:19:02.149Z,71.57
2022-08-19T04:20:06.818Z,71.37
2022-08-19T04:21:01.682Z,71.57
2022-08-19T04:22:01.734Z,71.57
2022-08-19T04:23:01.930Z,71.57
2022-08-19T04:24:01.669Z,71.09
2022-08-19T04:25:01.916Z,71.57
2022-08-19T04:26:01.913Z,71.19
2022-08-19T04:27:01.651Z,71.19
2022-08-19T04:28:01.902Z,71.47
2022-08-19T04:29:01.897Z,71.37
2022-08-19T04:30:01.890Z,71.28
2022-08-19T04:31:01.892Z,71.57
2022-08-19T04:32:08.850Z,71.47
2022-08-19T04:33:01.875Z,71.57
2022-08-19T04:34:01.619Z,71.47
2022-08-19T04:35:16.649Z,70.99
2022-08-19T04:36:01.610Z,70.9
2022-08-19T04:37:01.595Z,71.19
2022-08-19T04:38:01.848Z,71.09
2022-08-19T04:39:01.588Z,71.19
2022-08-19T04:40:04.842Z,70.99
2022-08-19T04:41:01.573Z,71.09
2022-08-19T04:42:01.825Z,71.28
2022-08-19T04:43:01.566Z,71.28
2022-08-19T04:44:06.608Z,70.8
2022-08-19T04:45:01.814Z,70.8
2022-08-19T04:46:03.385Z,70.61
2022-08-19T04:47:01.712Z,70.51
2022-08-19T04:48:29.767Z,70.51
2022-08-19T04:49:10.679Z,70.7
2022-08-19T04:50:01.782Z,70.7
2022-08-19T04:51:01.544Z,70.7
2022-08-19T04:52:01.522Z,70.8
2022-08-19T04:53:01.791Z,70.8
2022-08-19T04:54:01.762Z,70.99
2022-08-19T04:55:01.503Z,71.09
2022-08-19T04:56:01.494Z,70.8
2022-08-19T04:57:01.487Z,70.8
2022-08-19T04:58:02.543Z,70.99
2022-08-19T04:59:01.739Z,70.8
2022-08-19T05:00:01.475Z,70.8
2022-08-19T05:01:01.884Z,70.99
2022-08-19T05:02:01.724Z,70.99
2022-08-19T05:03:04.391Z,70.8
2022-08-19T05:04:01.455Z,70.7
2022-08-19T05:05:01.710Z,70.8
2022-08-19T05:06:01.442Z,70.99
2022-08-19T05:07:03.276Z,70.99
2022-08-19T05:08:01.433Z,70.99
2022-08-19T05:09:01.687Z,70.8
2022-08-19T05:10:01.529Z,70.8
2022-08-19T05:11:01.683Z,70.9
2022-08-19T05:12:01.666Z,70.99
2022-08-19T05:13:01.663Z,70.99
2022-08-19T05:14:01.654Z,70.8
2022-08-19T05:15:01.664Z,70.99
2022-08-19T05:16:01.896Z,70.99
2022-08-19T05:17:31.189Z,70.9
2022-08-19T05:18:01.634Z,70.99
2022-08-19T05:19:01.376Z,70.99
2022-08-19T05:20:01.624Z,70.9
2022-08-19T05:21:01.623Z,70.99
2022-08-19T05:22:01.613Z,70.7
2022-08-19T05:23:01.612Z,70.7
2022-08-19T05:24:01.347Z,70.61
2022-08-19T05:25:15.157Z,70.51
2022-08-19T05:26:01.339Z,70.61
2022-08-19T05:27:01.590Z,70.51
2022-08-19T05:28:01.584Z,70.61
2022-08-19T05:29:02.645Z,70.7
2022-08-19T05:30:01.623Z,70.51
2022-08-19T05:31:01.569Z,70.61
2022-08-19T05:32:01.560Z,70.61
2022-08-19T05:33:01.559Z,70.61
2022-08-19T05:34:01.555Z,70.61
2022-08-19T05:35:01.288Z,70.42
2022-08-19T05:36:01.545Z,70.7
2022-08-19T05:37:01.282Z,70.42
2022-08-19T05:38:01.732Z,70.42
2022-08-19T05:39:01.521Z,70.51
2022-08-19T05:40:01.465Z,70.61
2022-08-19T05:41:01.261Z,70.61
2022-08-19T05:42:01.518Z,70.51
2022-08-19T05:43:01.244Z,70.23
2022-08-19T05:44:01.242Z,70.7
2022-08-19T05:45:01.239Z,70.51
2022-08-19T05:46:01.494Z,70.61
2022-08-19T05:47:01.486Z,70.7
2022-08-19T05:48:01.480Z,70.7
2022-08-19T05:49:01.471Z,70.61
2022-08-19T05:50:01.213Z,70.23
2022-08-19T05:51:01.462Z,70.23
2022-08-19T05:52:01.202Z,70.23
2022-08-19T05:53:01.453Z,70.42
2022-08-19T05:54:01.447Z,70.42
2022-08-19T05:55:01.440Z,70.7
2022-08-19T05:56:01.472Z,70.51
2022-08-19T05:57:01.173Z,70.7
2022-08-19T05:58:01.426Z,70.61
2022-08-19T05:59:01.757Z,69.93
2022-08-19T06:00:01.719Z,70.03
2022-08-19T06:01:01.156Z,70.03
2022-08-19T06:02:01.150Z,70.03
2022-08-19T06:03:01.243Z,69.84
2022-08-19T06:04:01.141Z,70.23
2022-08-19T06:05:01.131Z,69.93
2022-08-19T06:06:01.128Z,70.17
2022-08-19T06:07:01.467Z,70.03
2022-08-19T06:08:01.115Z,69.78
2022-08-19T06:09:01.365Z,69.78
2022-08-19T06:10:03.080Z,69.87
2022-08-19T06:11:01.354Z,70.07
2022-08-19T06:12:01.094Z,69.74
2022-08-19T06:13:01.094Z,69.74
2022-08-19T06:14:02.330Z,69.87
2022-08-19T06:15:04.048Z,69.87
2022-08-19T06:16:01.335Z,70.17
2022-08-19T06:17:04.925Z,70.13
2022-08-19T06:18:01.324Z,70.17
2022-08-19T06:19:01.317Z,69.97
2022-08-19T06:20:01.057Z,70.07
2022-08-19T06:21:01.305Z,69.93
2022-08-19T06:22:02.063Z,70.13
2022-08-19T06:23:01.039Z,70.17
2022-08-19T06:24:01.290Z,69.93
2022-08-19T06:25:01.285Z,69.93
2022-08-19T06:26:01.022Z,70.07
2022-08-19T06:27:03.622Z,70.07
2022-08-19T06:28:17.455Z,69.97
2022-08-19T06:29:01.012Z,69.68
2022-08-19T06:30:01.261Z,69.87
2022-08-19T06:31:01.267Z,69.97
2022-08-19T06:32:01.247Z,69.59
2022-08-19T06:33:00.987Z,69.87
2022-08-19T06:34:01.590Z,70.17
2022-08-19T06:35:00.977Z,69.87
2022-08-19T06:36:01.230Z,69.78
2022-08-19T06:37:01.225Z,69.87
2022-08-19T06:38:01.257Z,70.07
2022-08-19T06:39:00.958Z,70.07
2022-08-19T06:40:01.345Z,69.97
2022-08-19T06:41:01.207Z,69.87
2022-08-19T06:42:01.315Z,69.68
2022-08-19T06:43:03.611Z,69.65
2022-08-19T06:44:00.937Z,69.68
2022-08-19T06:45:01.506Z,69.78
2022-08-19T06:46:01.248Z,69.68
2022-08-19T06:47:01.181Z,69.78
2022-08-19T06:48:00.926Z,69.59
2022-08-19T06:49:00.917Z,69.87
2022-08-19T06:50:03.713Z,69.87
2022-08-19T06:51:01.868Z,69.78
2022-08-19T06:52:00.899Z,69.97
2022-08-19T06:53:07.112Z,69.3
2022-08-19T06:54:01.151Z,69.59
2022-08-19T06:55:02.186Z,69.59
2022-08-19T06:56:00.873Z,69.49
2022-08-19T06:57:01.128Z,69.87
2022-08-19T06:58:00.863Z,69.3
2022-08-19T06:59:00.864Z,69.68
2022-08-19T07:00:00.855Z,69.59
2022-08-19T07:01:02.565Z,69.78
2022-08-19T07:02:00.849Z,69.78
2022-08-19T07:03:08.361Z,69.59
2022-08-19T07:04:00.848Z,69.74
2022-08-19T07:05:01.131Z,69.68
2022-08-19T07:06:01.100Z,69.2
2022-08-19T07:07:01.176Z,69.49
2022-08-19T07:08:06.918Z,69.17
2022-08-19T07:09:01.072Z,69.3
2022-08-19T07:10:07.672Z,69.2
2022-08-19T07:11:01.065Z,69.4
2022-08-19T07:12:01.885Z,69.49
2022-08-19T07:13:01.050Z,69.49
2022-08-19T07:14:01.479Z,69.78
2022-08-19T07:15:01.098Z,69.4
2022-08-19T07:16:07.689Z,69.3
2022-08-19T07:17:01.032Z,69.59
2022-08-19T07:18:02.081Z,69.2
2022-08-19T07:19:10.892Z,69.59
2022-08-19T07:20:09.580Z,69.4
2022-08-19T07:21:01.676Z,69.49
2022-08-19T07:22:01.018Z,69.4
2022-08-19T07:23:00.787Z,69.49
2022-08-19T07:24:02.877Z,69.4
2022-08-19T07:25:00.733Z,69.49
2022-08-19T07:26:01.113Z,69.49
2022-08-19T07:27:01.548Z,69.2
2022-08-19T07:28:03.649Z,69.49
2022-08-19T07:29:00.970Z,69.87
2022-08-19T07:30:02.136Z,69.2
2022-08-19T07:31:00.707Z,69.59
2022-08-19T07:32:02.306Z,69.65
2022-08-19T07:33:00.701Z,69.59
2022-08-19T07:34:00.952Z,69.49
2022-08-19T07:35:00.946Z,69.46
2022-08-19T07:36:00.681Z,69.4
2022-08-19T07:37:00.677Z,69.78
2022-08-19T07:38:00.678Z,69.11
2022-08-19T07:39:00.919Z,69.78
2022-08-19T07:40:00.782Z,69.11
2022-08-19T07:41:00.915Z,69.01
2022-08-19T07:42:00.660Z,69.01
2022-08-19T07:43:00.643Z,69.59
2022-08-19T07:44:00.644Z,69.3
2022-08-19T07:45:00.905Z,68.91
2022-08-19T07:46:01.280Z,69.11
2022-08-19T07:47:00.896Z,69.11
2022-08-19T07:48:02.561Z,68.82
2022-08-19T07:49:01.778Z,68.91
2022-08-19T07:50:01.782Z,69.01
2022-08-19T07:51:01.788Z,69.01
2022-08-19T07:52:01.506Z,69.3
2022-08-19T07:53:01.498Z,69.01
2022-08-19T07:54:01.501Z,69.49
2022-08-19T07:55:01.489Z,69.3
2022-08-19T07:56:01.484Z,69.4
2022-08-19T07:57:01.486Z,69.11
2022-08-19T07:58:01.748Z,69.11
2022-08-19T07:59:01.474Z,69.24
2022-08-19T08:00:01.473Z,69.24
2022-08-19T08:01:01.465Z,69.11
2022-08-19T08:02:01.665Z,69.11
2022-08-19T08:03:01.714Z,69.2
2022-08-19T08:04:01.463Z,69.11
2022-08-19T08:05:01.707Z,69.3
2022-08-19T08:06:01.443Z,69.2
2022-08-19T08:07:01.440Z,69.4
2022-08-19T08:08:01.429Z,69.2
2022-08-19T08:09:01.433Z,68.91
2022-08-19T08:10:05.302Z,68.82
2022-08-19T08:11:01.428Z,69.11
2022-08-19T08:12:09.022Z,69.2
2022-08-19T08:13:12.914Z,69.01
2022-08-19T08:14:04.365Z,69.2
2022-08-19T08:15:01.400Z,69.11
2022-08-19T08:16:02.082Z,69.2
2022-08-19T08:17:01.404Z,69.01
2022-08-19T08:18:02.234Z,69.2
2022-08-19T08:19:01.378Z,69.4
2022-08-19T08:20:01.372Z,69.11
2022-08-19T08:21:01.633Z,69.3
2022-08-19T08:22:01.617Z,68.91
2022-08-19T08:23:01.614Z,68.73
2022-08-19T08:24:01.393Z,68.73
2022-08-19T08:25:01.612Z,68.91
2022-08-19T08:26:01.352Z,68.91
2022-08-19T08:27:02.025Z,68.76
2022-08-19T08:28:01.590Z,68.95
2022-08-19T08:29:01.594Z,68.82
2022-08-19T08:30:05.068Z,68.85
2022-08-19T08:31:01.328Z,68.76
2022-08-19T08:32:02.471Z,69.05
2022-08-19T08:33:02.618Z,69.05
2022-08-19T08:34:01.563Z,69.05
2022-08-19T08:35:01.313Z,69.11
2022-08-19T08:36:01.559Z,69.43
2022-08-19T08:37:01.296Z,69.2
2022-08-19T08:38:01.545Z,69.34
2022-08-19T08:39:01.648Z,68.82
2022-08-19T08:40:01.346Z,68.73
2022-08-19T08:41:01.275Z,69.24
2022-08-19T08:42:01.525Z,68.95
2022-08-19T08:44:01.512Z,69.05
2022-08-19T08:45:02.241Z,68.57
2022-08-19T08:46:01.514Z,68.95
2022-08-19T08:47:01.512Z,68.47
2022-08-19T08:48:01.246Z,68.47
2022-08-19T08:49:01.785Z,68.47
2022-08-19T08:50:01.232Z,68.37
2022-08-19T08:51:01.493Z,68.37
2022-08-19T08:52:02.635Z,68.66
2022-08-19T08:53:01.334Z,68.66
2022-08-19T08:54:01.474Z,68.95
2022-08-19T08:55:01.734Z,68.66
2022-08-19T08:56:01.458Z,68.85
2022-08-19T08:57:01.457Z,68.76
2022-08-19T08:58:01.195Z,68.57
2022-08-19T08:59:01.189Z,68.76
2022-08-19T09:00:01.185Z,68.66
2022-08-19T09:01:01.435Z,68.95
2022-08-19T09:02:01.575Z,68.76
2022-08-19T09:03:01.424Z,69.14
2022-08-19T09:04:05.215Z,68.85
2022-08-19T09:05:04.723Z,68.76
2022-08-19T09:06:01.164Z,68.76
2022-08-19T09:07:01.684Z,68.95
2022-08-19T09:08:02.231Z,68.76
2022-08-19T09:09:02.145Z,68.85
2022-08-19T09:10:01.897Z,68.57
2022-08-19T09:11:01.387Z,68.66
2022-08-19T09:12:01.202Z,68.66
2022-08-19T09:13:01.383Z,68.57
2022-08-19T09:14:01.382Z,68.37
2022-08-19T09:15:01.118Z,68.37
2022-08-19T09:16:01.116Z,68.47
2022-08-19T09:17:01.108Z,68.66
2022-08-19T09:18:01.303Z,68.66
2022-08-19T09:19:01.097Z,68.57
2022-08-19T09:20:01.704Z,68.18
2022-08-19T09:21:01.095Z,67.99
2022-08-19T09:22:01.348Z,68.08
2022-08-19T09:23:01.082Z,68.08
2022-08-19T09:24:03.567Z,67.61
2022-08-19T09:25:01.328Z,67.61
2022-08-19T09:26:01.325Z,68.02
2022-08-19T09:27:03.596Z,68.21
2022-08-19T09:28:05.558Z,68.02
2022-08-19T09:29:01.056Z,67.74
2022-08-19T09:30:01.055Z,68.02
2022-08-19T09:31:01.045Z,67.64
2022-08-19T09:32:01.042Z,67.74
2022-08-19T09:33:01.033Z,67.83
2022-08-19T09:34:01.039Z,67.74
2022-08-19T09:35:01.301Z,67.83
2022-08-19T09:36:01.419Z,68.21
2022-08-19T09:37:01.282Z,68.41
2022-08-19T09:38:02.160Z,68.21
2022-08-19T09:39:01.627Z,67.74
2022-08-19T09:40:01.406Z,67.74
2022-08-19T09:41:01.026Z,67.74
2022-08-19T09:42:01.009Z,67.93
2022-08-19T09:43:01.252Z,68.02
2022-08-19T09:44:01.170Z,67.64
2022-08-19T09:45:04.944Z,67.54
2022-08-19T09:46:01.238Z,67.54
2022-08-19T09:47:01.237Z,67.35
2022-08-19T09:48:01.236Z,67.48
2022-08-19T09:49:08.185Z,67.58
2022-08-19T09:50:01.238Z,67.48
2022-08-19T09:51:01.226Z,67.58
2022-08-19T09:52:01.221Z,67.29
2022-08-19T09:53:00.960Z,67.48
2022-08-19T09:54:01.214Z,67.86
2022-08-19T09:55:01.208Z,68.35
2022-08-19T09:56:00.944Z,69.02
2022-08-19T09:57:01.235Z,68.73
2022-08-19T09:58:01.188Z,69.12
2022-08-19T09:59:00.933Z,68.63
2022-08-19T10:00:01.362Z,68.15
2022-08-19T10:01:01.709Z,68.73
2022-08-19T10:02:12.744Z,68.83
2022-08-19T10:03:01.603Z,69.31
2022-08-19T10:04:04.400Z,69.31
2022-08-19T10:05:03.055Z,69.46
2022-08-19T10:06:01.588Z,68.89
2022-08-19T10:07:02.224Z,68.89
2022-08-19T10:08:01.425Z,69.46
2022-08-19T10:09:01.319Z,69.56
2022-08-19T10:10:01.572Z,69.56
2022-08-19T10:11:27.686Z,69.85
2022-08-19T10:12:04.977Z,69.75
2022-08-19T10:13:03.036Z,70.14
2022-08-19T10:14:01.551Z,69.37
2022-08-19T10:15:01.548Z,69.27
2022-08-19T10:16:01.553Z,69.27
2022-08-19T10:17:01.627Z,69.18
2022-08-19T10:18:01.541Z,68.98
2022-08-19T10:19:03.611Z,68.79
2022-08-19T10:20:01.542Z,69.56
2022-08-19T10:21:01.280Z,68.98
2022-08-19T10:22:02.928Z,69.18
2022-08-19T10:23:01.314Z,69.46
2022-08-19T10:24:01.582Z,69.37
2022-08-19T10:25:01.513Z,69.27
2022-08-19T10:26:02.196Z,69.46
2022-08-19T10:27:02.442Z,69.81
2022-08-19T10:28:01.243Z,69.72
2022-08-19T10:29:01.534Z,70.2
2022-08-19T10:30:02.793Z,69.34
2022-08-19T10:31:01.235Z,69.43
2022-08-19T10:32:03.461Z,69.53
2022-08-19T10:33:01.718Z,69.43
2022-08-19T10:34:04.497Z,69.05
2022-08-19T10:35:01.213Z,69.24
2022-08-19T10:36:01.466Z,69.34
2022-08-19T10:37:03.868Z,69.62
2022-08-19T10:38:04.530Z,69.14
2022-08-19T10:39:01.457Z,69.37
2022-08-19T10:40:01.339Z,69.27
2022-08-19T10:41:01.187Z,69.37
2022-08-19T10:42:01.189Z,69.18
2022-08-19T10:43:01.183Z,69.08
2022-08-19T10:44:06.345Z,69.08
2022-08-19T10:45:04.899Z,68.7
2022-08-19T10:46:01.172Z,68.41
2022-08-19T10:47:02.278Z,69.18
2022-08-19T10:48:02.318Z,68.98
2022-08-19T10:49:03.088Z,68.89
2022-08-19T10:50:01.409Z,69.18
2022-08-19T10:51:01.411Z,69.27
2022-08-19T10:52:01.144Z,69.46
2022-08-19T10:53:02.325Z,69.66
2022-08-19T10:54:01.408Z,69.95
2022-08-19T10:55:08.411Z,68.89
2022-08-19T10:56:01.386Z,68.12
2022-08-19T10:57:01.371Z,67.48
2022-08-19T10:58:04.910Z,67.48
2022-08-19T10:59:01.124Z,67.48
2022-08-19T11:00:01.367Z,67.58
2022-08-19T11:01:01.268Z,67.48
2022-08-19T11:02:01.182Z,67.38
2022-08-19T11:03:01.355Z,66.55
2022-08-19T11:04:01.348Z,66.94
2022-08-19T11:05:12.556Z,66.55
2022-08-19T11:06:01.342Z,66.74
2022-08-19T11:07:01.336Z,66.84
2022-08-19T11:08:07.203Z,67.03
2022-08-19T11:09:01.328Z,67.26
2022-08-19T11:10:01.330Z,67.93
2022-08-19T11:11:01.321Z,67.93
2022-08-19T11:12:05.210Z,68.9
2022-08-19T11:13:01.058Z,70.82
2022-08-19T11:14:01.323Z,71.46
2022-08-19T11:15:01.055Z,72.13
2022-08-19T11:16:07.278Z,72.8
2022-08-19T11:17:01.303Z,73.28
2022-08-19T11:18:01.302Z,73.47
2022-08-19T11:19:01.037Z,73.47
2022-08-19T11:20:01.294Z,75.02
2022-08-19T11:21:01.288Z,75.07
2022-08-19T11:22:02.567Z,74.3
2022-08-19T11:23:01.301Z,74.3
2022-08-19T11:24:01.027Z,74.79
2022-08-19T11:25:01.020Z,74.98
2022-08-19T11:26:01.272Z,74.6
2022-08-19T11:27:01.014Z,74.21
2022-08-19T11:28:01.010Z,74.27
2022-08-19T11:29:01.262Z,74.02
2022-08-19T11:30:01.262Z,74.11
2022-08-19T11:31:00.998Z,74.27
2022-08-19T11:32:00.996Z,74.3
2022-08-19T11:33:00.989Z,74.37
2022-08-19T11:34:00.997Z,73.98
2022-08-19T11:35:00.989Z,73.79
2022-08-19T11:36:00.995Z,74.27
2022-08-19T11:37:00.976Z,74.08
2022-08-19T11:38:01.226Z,74.65
2022-08-19T11:39:01.226Z,75.32
2022-08-19T11:40:01.299Z,74.85
2022-08-19T11:41:00.974Z,76
2022-08-19T11:42:01.211Z,75.77
2022-08-19T11:43:01.206Z,76.06
2022-08-19T11:44:00.944Z,76.73
2022-08-19T11:45:00.945Z,76.15
2022-08-19T11:46:01.196Z,75.87
2022-08-19T11:47:11.543Z,75.1
2022-08-19T11:48:01.186Z,75
2022-08-19T11:49:00.928Z,76.06
2022-08-19T11:50:00.924Z,74.81
2022-08-19T11:51:00.919Z,74.96
2022-08-19T11:52:00.914Z,74.01
2022-08-19T11:53:00.912Z,73.46
2022-08-19T11:54:01.175Z,73.66
2022-08-19T11:55:01.159Z,73.24
2022-08-19T11:56:01.154Z,72.99
2022-08-19T11:57:00.896Z,72.18
2022-08-19T11:58:01.753Z,71.98
2022-08-19T11:59:01.494Z,72.31
2022-08-19T12:00:02.285Z,72.22
2022-08-19T12:01:02.243Z,72.02
2022-08-19T12:02:02.499Z,71.16
2022-08-19T12:03:02.491Z,71.73
2022-08-19T12:04:02.442Z,71.35
2022-08-19T12:05:02.231Z,71.35
2022-08-19T12:06:02.489Z,71.16
2022-08-19T12:07:02.217Z,71.25
2022-08-19T12:08:02.484Z,71.35
2022-08-19T12:09:03.225Z,71.06
2022-08-19T12:10:02.213Z,70.87
2022-08-19T12:11:02.462Z,72.12
2022-08-19T12:12:02.460Z,72.99
2022-08-19T12:13:02.462Z,72.5
2022-08-19T12:14:02.245Z,72.6
2022-08-19T12:15:02.451Z,73.27
2022-08-19T12:16:02.177Z,72.6
2022-08-19T12:17:02.432Z,72.31
2022-08-19T12:18:02.425Z,72.22
2022-08-19T12:19:02.426Z,72.5
2022-08-19T12:20:02.159Z,72.31
2022-08-19T12:21:02.161Z,72.31
2022-08-19T12:22:02.155Z,72.22
2022-08-19T12:23:02.402Z,72.47
2022-08-19T12:24:02.402Z,71.8
2022-08-19T12:25:02.406Z,71.8
2022-08-19T12:26:02.137Z,71.64
2022-08-19T12:27:05.537Z,71.93
2022-08-19T12:28:03.233Z,72.31
2022-08-19T12:29:02.119Z,72.5
2022-08-19T12:30:02.115Z,72.47
2022-08-19T12:31:02.362Z,72.08
2022-08-19T12:32:03.792Z,72.41
2022-08-19T12:33:02.684Z,72.28
2022-08-19T12:34:02.676Z,73.04
2022-08-19T12:35:02.414Z,72.56
2022-08-19T12:36:02.417Z,72.08
2022-08-19T12:37:02.408Z,71.31
2022-08-19T12:38:02.980Z,71.89
2022-08-19T12:39:02.665Z,72.28
2022-08-19T12:40:02.727Z,71.98
2022-08-19T12:41:02.984Z,71.03
2022-08-19T12:42:02.387Z,71.51
2022-08-19T12:43:02.645Z,71.31
2022-08-19T12:44:03.361Z,71.12
2022-08-19T12:45:02.634Z,71.51
2022-08-19T12:46:02.582Z,71.03
2022-08-19T12:47:03.977Z,71.12
2022-08-19T12:48:07.977Z,70.45
2022-08-19T12:49:14.091Z,70.55
2022-08-19T12:50:09.462Z,70.64
2022-08-19T12:51:07.032Z,70.36
2022-08-19T12:52:07.030Z,70.36
2022-08-19T12:53:07.289Z,70.55
2022-08-19T12:54:07.274Z,70.17
2022-08-19T12:55:07.265Z,69.81
2022-08-19T12:56:11.541Z,70.1
2022-08-19T12:57:07.257Z,70.01
2022-08-19T12:58:07.254Z,70.74
2022-08-19T12:59:06.995Z,70.97
2022-08-19T13:00:08.170Z,70.2
2022-08-19T13:01:07.410Z,70.2
2022-08-19T13:02:07.243Z,69.78
2022-08-19T13:03:06.977Z,69.78
2022-08-19T13:04:06.971Z,70.78
2022-08-19T13:05:07.007Z,71.45
2022-08-19T13:06:06.986Z,71.55
2022-08-19T13:07:06.955Z,71.51
2022-08-19T13:08:07.216Z,71.51
2022-08-19T13:09:06.952Z,70.58
2022-08-19T13:10:07.044Z,70.36
2022-08-19T13:11:07.198Z,69.68
2022-08-19T13:12:06.939Z,68.85
2022-08-19T13:13:06.931Z,68.95
2022-08-19T13:14:06.923Z,69.14